sensor_id;sensor_type;location;lat;lon;timestamp;temperature;humidity
40808;DHT22;26523;52.504;13.498;2022-10-31T00:00:55;10.50;99.90
40808;DHT22;26523;52.504;13.498;2022-10-31T00:03:21;10.40;99.90
40808;DHT22;26523;52.504;13.498;2022-10-31T00:05:48;10.40;99.90
40808;DHT22;26523;52.504;13.498;2022-10-31T00:08:15;10.40;99.90
40808;DHT22;26523;52.504;13.498;2022-10-31T00:10:42;10.30;99.90
40808;DHT22;26523;52.504;13.498;2022-10-31T00:13:09;10.30;99.90
40808;DHT22;26523;52.504;13.498;2022-10-31T00:15:36;10.30;99.90
40808;DHT22;26523;52.504;13.498;2022-10-31T00:18:02;10.30;99.90
40808;DHT22;26523;52.504;13.498;2022-10-31T00:20:28;10.20;99.90
40808;DHT22;26523;52.504;13.498;2022-10-31T00:22:57;10.20;99.90
40808;DHT22;26523;52.504;13.498;2022-10-31T00:25:23;10.20;99.90
40808;DHT22;26523;52.504;13.498;2022-10-31T00:27:49;10.20;99.90
40808;DHT22;26523;52.504;13.498;2022-10-31T00:30:15;10.10;99.90
40808;DHT22;26523;52.504;13.498;2022-10-31T00:32:40;10.10;99.90
40808;DHT22;26523;52.504;13.498;2022-10-31T00:35:06;10.10;99.90
40808;DHT22;26523;52.504;13.498;2022-10-31T00:37:32;10.10;99.90
40808;DHT22;26523;52.504;13.498;2022-10-31T00:39:57;10.10;99.90
40808;DHT22;26523;52.504;13.498;2022-10-31T00:42:23;10.10;99.90
40808;DHT22;26523;52.504;13.498;2022-10-31T00:44:49;10.20;99.90
40808;DHT22;26523;52.504;13.498;2022-10-31T00:47:14;10.10;99.90
40808;DHT22;26523;52.504;13.498;2022-10-31T00:49:40;10.10;99.90
40808;DHT22;26523;52.504;13.498;2022-10-31T00:52:05;10.10;99.90
40808;DHT22;26523;52.504;13.498;2022-10-31T00:54:31;10.00;99.90
40808;DHT22;26523;52.504;13.498;2022-10-31T00:56:57;10.00;99.90
40808;DHT22;26523;52.504;13.498;2022-10-31T00:59:23;10.10;99.90
40808;DHT22;26523;52.504;13.498;2022-10-31T01:01:49;10.00;99.90
40808;DHT22;26523;52.504;13.498;2022-10-31T01:04:14;10.00;99.90
40808;DHT22;26523;52.504;13.498;2022-10-31T01:06:40;10.00;99.90
40808;DHT22;26523;52.504;13.498;2022-10-31T01:09:06;10.00;99.90
40808;DHT22;26523;52.504;13.498;2022-10-31T01:11:32;9.90;99.90
40808;DHT22;26523;52.504;13.498;2022-10-31T01:13:57;10.00;99.90
40808;DHT22;26523;52.504;13.498;2022-10-31T01:16:24;10.00;99.90
40808;DHT22;26523;52.504;13.498;2022-10-31T01:18:51;9.90;99.90
40808;DHT22;26523;52.504;13.498;2022-10-31T01:21:22;10.00;99.90
40808;DHT22;26523;52.504;13.498;2022-10-31T01:23:48;9.90;99.90
40808;DHT22;26523;52.504;13.498;2022-10-31T01:26:19;9.90;99.90
40808;DHT22;26523;52.504;13.498;2022-10-31T01:28:52;9.90;99.90
40808;DHT22;26523;52.504;13.498;2022-10-31T01:31:20;9.90;99.90
40808;DHT22;26523;52.504;13.498;2022-10-31T01:33:46;9.80;99.90
40808;DHT22;26523;52.504;13.498;2022-10-31T01:36:19;9.80;99.90
40808;DHT22;26523;52.504;13.498;2022-10-31T01:38:46;9.80;99.90
40808;DHT22;26523;52.504;13.498;2022-10-31T01:41:16;9.90;99.90
40808;DHT22;26523;52.504;13.498;2022-10-31T01:46:08;9.80;99.90
40808;DHT22;26523;52.504;13.498;2022-10-31T01:48:34;9.70;99.90
40808;DHT22;26523;52.504;13.498;2022-10-31T01:51:00;9.80;99.90
40808;DHT22;26523;52.504;13.498;2022-10-31T01:53:26;9.80;99.90
40808;DHT22;26523;52.504;13.498;2022-10-31T01:55:51;9.80;99.90
40808;DHT22;26523;52.504;13.498;2022-10-31T01:58:25;9.80;99.90
40808;DHT22;26523;52.504;13.498;2022-10-31T02:00:55;9.80;99.90
40808;DHT22;26523;52.504;13.498;2022-10-31T02:03:23;9.70;99.90
40808;DHT22;26523;52.504;13.498;2022-10-31T02:05:49;9.70;99.90
40808;DHT22;26523;52.504;13.498;2022-10-31T02:08:27;9.70;99.90
40808;DHT22;26523;52.504;13.498;2022-10-31T02:10:54;9.70;99.90
40808;DHT22;26523;52.504;13.498;2022-10-31T02:13:20;9.70;99.90
40808;DHT22;26523;52.504;13.498;2022-10-31T02:15:51;9.70;99.90
40808;DHT22;26523;52.504;13.498;2022-10-31T02:18:17;9.80;99.90
40808;DHT22;26523;52.504;13.498;2022-10-31T02:21:02;9.80;99.90
40808;DHT22;26523;52.504;13.498;2022-10-31T02:26:59;9.70;99.90
40808;DHT22;26523;52.504;13.498;2022-10-31T02:32:29;9.70;99.90
40808;DHT22;26523;52.504;13.498;2022-10-31T02:34:59;9.70;99.90
40808;DHT22;26523;52.504;13.498;2022-10-31T02:37:57;9.60;99.90
40808;DHT22;26523;52.504;13.498;2022-10-31T02:40:51;9.70;99.90
40808;DHT22;26523;52.504;13.498;2022-10-31T02:43:22;9.60;99.90
40808;DHT22;26523;52.504;13.498;2022-10-31T02:46:04;9.60;99.90
40808;DHT22;26523;52.504;13.498;2022-10-31T02:48:34;9.70;99.90
40808;DHT22;26523;52.504;13.498;2022-10-31T02:51:03;9.70;99.90
40808;DHT22;26523;52.504;13.498;2022-10-31T02:53:34;9.70;99.90
40808;DHT22;26523;52.504;13.498;2022-10-31T02:58:28;9.60;99.90
40808;DHT22;26523;52.504;13.498;2022-10-31T03:06:41;9.60;99.90
40808;DHT22;26523;52.504;13.498;2022-10-31T03:14:41;9.60;99.90
40808;DHT22;26523;52.504;13.498;2022-10-31T03:17:14;9.60;99.90
40808;DHT22;26523;52.504;13.498;2022-10-31T03:19:43;9.60;99.90
40808;DHT22;26523;52.504;13.498;2022-10-31T03:22:22;9.50;99.90
40808;DHT22;26523;52.504;13.498;2022-10-31T03:24:50;9.50;99.90
40808;DHT22;26523;52.504;13.498;2022-10-31T03:27:23;9.50;99.90
40808;DHT22;26523;52.504;13.498;2022-10-31T03:29:53;9.50;99.90
40808;DHT22;26523;52.504;13.498;2022-10-31T03:32:34;9.50;99.90
40808;DHT22;26523;52.504;13.498;2022-10-31T03:35:02;9.50;99.90
40808;DHT22;26523;52.504;13.498;2022-10-31T03:37:32;9.50;99.90
40808;DHT22;26523;52.504;13.498;2022-10-31T03:39:59;9.50;99.90
40808;DHT22;26523;52.504;13.498;2022-10-31T03:42:30;9.50;99.90
40808;DHT22;26523;52.504;13.498;2022-10-31T03:45:06;9.50;99.90
40808;DHT22;26523;52.504;13.498;2022-10-31T03:47:35;9.50;99.90
40808;DHT22;26523;52.504;13.498;2022-10-31T03:50:03;9.50;99.90
40808;DHT22;26523;52.504;13.498;2022-10-31T03:55:20;9.60;99.90
40808;DHT22;26523;52.504;13.498;2022-10-31T03:58:11;9.50;99.90
40808;DHT22;26523;52.504;13.498;2022-10-31T04:00:40;9.60;99.90
40808;DHT22;26523;52.504;13.498;2022-10-31T04:03:11;9.60;99.90
40808;DHT22;26523;52.504;13.498;2022-10-31T04:05:39;9.60;99.90
40808;DHT22;26523;52.504;13.498;2022-10-31T04:08:09;9.60;99.90
40808;DHT22;26523;52.504;13.498;2022-10-31T04:10:38;9.60;99.90
40808;DHT22;26523;52.504;13.498;2022-10-31T04:13:10;9.60;99.90
40808;DHT22;26523;52.504;13.498;2022-10-31T04:15:37;9.60;99.90
40808;DHT22;26523;52.504;13.498;2022-10-31T04:18:04;9.60;99.90
40808;DHT22;26523;52.504;13.498;2022-10-31T04:20:35;9.60;99.90
40808;DHT22;26523;52.504;13.498;2022-10-31T04:23:02;9.60;99.90
40808;DHT22;26523;52.504;13.498;2022-10-31T04:25:27;9.60;99.90
40808;DHT22;26523;52.504;13.498;2022-10-31T04:27:53;9.50;99.90
40808;DHT22;26523;52.504;13.498;2022-10-31T04:30:19;9.50;99.90
40808;DHT22;26523;52.504;13.498;2022-10-31T04:32:45;9.60;99.90
40808;DHT22;26523;52.504;13.498;2022-10-31T04:35:11;9.50;99.90
40808;DHT22;26523;52.504;13.498;2022-10-31T04:37:36;9.50;99.90
40808;DHT22;26523;52.504;13.498;2022-10-31T04:40:02;9.50;99.90
40808;DHT22;26523;52.504;13.498;2022-10-31T04:42:31;9.50;99.90
40808;DHT22;26523;52.504;13.498;2022-10-31T04:44:57;9.50;99.90
40808;DHT22;26523;52.504;13.498;2022-10-31T04:47:22;9.50;99.90
40808;DHT22;26523;52.504;13.498;2022-10-31T04:49:48;9.50;99.90
40808;DHT22;26523;52.504;13.498;2022-10-31T04:52:13;9.50;99.90
40808;DHT22;26523;52.504;13.498;2022-10-31T04:54:39;9.50;99.90
40808;DHT22;26523;52.504;13.498;2022-10-31T04:57:05;9.50;99.90
40808;DHT22;26523;52.504;13.498;2022-10-31T04:59:30;9.50;99.90
40808;DHT22;26523;52.504;13.498;2022-10-31T05:01:56;9.50;99.90
40808;DHT22;26523;52.504;13.498;2022-10-31T05:04:22;9.50;99.90
40808;DHT22;26523;52.504;13.498;2022-10-31T05:06:47;9.50;99.90
40808;DHT22;26523;52.504;13.498;2022-10-31T05:09:13;9.50;99.90
40808;DHT22;26523;52.504;13.498;2022-10-31T05:11:39;9.50;99.90
40808;DHT22;26523;52.504;13.498;2022-10-31T05:14:04;9.50;99.90
40808;DHT22;26523;52.504;13.498;2022-10-31T05:16:30;9.50;99.90
40808;DHT22;26523;52.504;13.498;2022-10-31T05:18:56;9.50;99.90
40808;DHT22;26523;52.504;13.498;2022-10-31T05:21:21;9.50;99.90
40808;DHT22;26523;52.504;13.498;2022-10-31T05:23:47;9.50;99.90
40808;DHT22;26523;52.504;13.498;2022-10-31T05:26:13;9.50;99.90
40808;DHT22;26523;52.504;13.498;2022-10-31T05:28:38;9.40;99.90
40808;DHT22;26523;52.504;13.498;2022-10-31T05:31:04;9.40;99.90
40808;DHT22;26523;52.504;13.498;2022-10-31T05:33:29;9.40;99.90
40808;DHT22;26523;52.504;13.498;2022-10-31T05:35:55;9.40;99.90
40808;DHT22;26523;52.504;13.498;2022-10-31T05:38:21;9.40;99.90
40808;DHT22;26523;52.504;13.498;2022-10-31T05:40:46;9.40;99.90
40808;DHT22;26523;52.504;13.498;2022-10-31T05:43:12;9.40;99.90
40808;DHT22;26523;52.504;13.498;2022-10-31T05:45:38;9.50;99.90
40808;DHT22;26523;52.504;13.498;2022-10-31T05:48:04;9.50;99.90
40808;DHT22;26523;52.504;13.498;2022-10-31T05:50:31;9.50;99.90
40808;DHT22;26523;52.504;13.498;2022-10-31T05:52:59;9.50;99.90
40808;DHT22;26523;52.504;13.498;2022-10-31T05:55:25;9.50;99.90
40808;DHT22;26523;52.504;13.498;2022-10-31T05:57:51;9.50;99.90
40808;DHT22;26523;52.504;13.498;2022-10-31T06:00:18;9.50;99.90
40808;DHT22;26523;52.504;13.498;2022-10-31T06:02:44;9.50;99.90
40808;DHT22;26523;52.504;13.498;2022-10-31T06:05:09;9.50;99.90
40808;DHT22;26523;52.504;13.498;2022-10-31T06:07:35;9.60;99.90
40808;DHT22;26523;52.504;13.498;2022-10-31T06:10:03;9.60;99.90
40808;DHT22;26523;52.504;13.498;2022-10-31T06:12:29;9.60;99.90
40808;DHT22;26523;52.504;13.498;2022-10-31T06:14:55;9.60;99.90
40808;DHT22;26523;52.504;13.498;2022-10-31T06:17:20;9.60;99.90
40808;DHT22;26523;52.504;13.498;2022-10-31T06:19:46;9.70;99.90
40808;DHT22;26523;52.504;13.498;2022-10-31T06:22:12;9.70;99.90
40808;DHT22;26523;52.504;13.498;2022-10-31T06:24:38;9.70;99.90
40808;DHT22;26523;52.504;13.498;2022-10-31T06:27:04;9.80;99.90
40808;DHT22;26523;52.504;13.498;2022-10-31T06:29:29;9.80;99.90
40808;DHT22;26523;52.504;13.498;2022-10-31T06:31:56;9.80;99.90
40808;DHT22;26523;52.504;13.498;2022-10-31T06:34:21;9.90;99.90
40808;DHT22;26523;52.504;13.498;2022-10-31T06:36:47;9.90;99.90
40808;DHT22;26523;52.504;13.498;2022-10-31T06:39:13;9.90;99.90
40808;DHT22;26523;52.504;13.498;2022-10-31T06:41:39;9.90;99.90
40808;DHT22;26523;52.504;13.498;2022-10-31T06:44:06;10.00;99.90
40808;DHT22;26523;52.504;13.498;2022-10-31T06:46:31;10.10;99.90
40808;DHT22;26523;52.504;13.498;2022-10-31T06:48:57;10.10;99.90
40808;DHT22;26523;52.504;13.498;2022-10-31T06:51:23;10.10;99.90
40808;DHT22;26523;52.504;13.498;2022-10-31T06:53:49;10.10;99.90
40808;DHT22;26523;52.504;13.498;2022-10-31T06:56:14;10.20;99.90
40808;DHT22;26523;52.504;13.498;2022-10-31T06:58:40;10.20;99.90
40808;DHT22;26523;52.504;13.498;2022-10-31T07:01:05;10.20;99.90
40808;DHT22;26523;52.504;13.498;2022-10-31T07:03:31;10.20;99.90
40808;DHT22;26523;52.504;13.498;2022-10-31T07:05:57;10.30;99.90
40808;DHT22;26523;52.504;13.498;2022-10-31T07:08:23;10.40;99.90
40808;DHT22;26523;52.504;13.498;2022-10-31T07:10:54;10.40;99.90
40808;DHT22;26523;52.504;13.498;2022-10-31T07:13:21;10.50;99.90
40808;DHT22;26523;52.504;13.498;2022-10-31T07:15:52;10.60;99.90
40808;DHT22;26523;52.504;13.498;2022-10-31T07:18:25;10.60;99.90
40808;DHT22;26523;52.504;13.498;2022-10-31T07:20:52;10.80;99.90
40808;DHT22;26523;52.504;13.498;2022-10-31T07:23:18;10.90;99.90
40808;DHT22;26523;52.504;13.498;2022-10-31T07:25:43;11.00;99.90
40808;DHT22;26523;52.504;13.498;2022-10-31T07:28:10;11.10;99.90
40808;DHT22;26523;52.504;13.498;2022-10-31T07:30:36;11.30;99.90
40808;DHT22;26523;52.504;13.498;2022-10-31T07:33:02;11.40;99.90
40808;DHT22;26523;52.504;13.498;2022-10-31T07:35:29;11.70;99.90
40808;DHT22;26523;52.504;13.498;2022-10-31T07:37:55;12.00;99.90
40808;DHT22;26523;52.504;13.498;2022-10-31T07:40:21;12.20;99.90
40808;DHT22;26523;52.504;13.498;2022-10-31T07:42:50;12.60;99.90
40808;DHT22;26523;52.504;13.498;2022-10-31T07:45:18;12.80;99.90
40808;DHT22;26523;52.504;13.498;2022-10-31T07:47:46;13.10;99.90
40808;DHT22;26523;52.504;13.498;2022-10-31T07:50:15;13.50;99.90
40808;DHT22;26523;52.504;13.498;2022-10-31T07:52:41;13.80;99.90
40808;DHT22;26523;52.504;13.498;2022-10-31T07:55:07;14.10;99.90
40808;DHT22;26523;52.504;13.498;2022-10-31T07:57:33;14.30;99.90
40808;DHT22;26523;52.504;13.498;2022-10-31T07:59:58;14.50;99.90
40808;DHT22;26523;52.504;13.498;2022-10-31T08:02:24;14.70;99.90
40808;DHT22;26523;52.504;13.498;2022-10-31T08:04:50;14.90;99.90
40808;DHT22;26523;52.504;13.498;2022-10-31T08:07:16;15.00;99.90
40808;DHT22;26523;52.504;13.498;2022-10-31T08:09:42;15.10;99.90
40808;DHT22;26523;52.504;13.498;2022-10-31T08:12:08;15.30;99.90
40808;DHT22;26523;52.504;13.498;2022-10-31T08:14:33;15.20;99.90
40808;DHT22;26523;52.504;13.498;2022-10-31T08:16:59;15.20;99.90
40808;DHT22;26523;52.504;13.498;2022-10-31T08:19:24;15.10;99.90
40808;DHT22;26523;52.504;13.498;2022-10-31T08:21:51;15.00;99.90
40808;DHT22;26523;52.504;13.498;2022-10-31T08:24:17;14.90;99.90
40808;DHT22;26523;52.504;13.498;2022-10-31T08:26:43;14.90;99.90
40808;DHT22;26523;52.504;13.498;2022-10-31T08:29:08;14.90;99.90
40808;DHT22;26523;52.504;13.498;2022-10-31T08:31:34;14.90;99.90
40808;DHT22;26523;52.504;13.498;2022-10-31T08:34:00;14.80;99.90
40808;DHT22;26523;52.504;13.498;2022-10-31T08:36:27;14.90;99.90
40808;DHT22;26523;52.504;13.498;2022-10-31T08:38:53;15.00;99.90
40808;DHT22;26523;52.504;13.498;2022-10-31T08:41:18;14.90;99.90
40808;DHT22;26523;52.504;13.498;2022-10-31T08:43:44;14.90;99.90
40808;DHT22;26523;52.504;13.498;2022-10-31T08:46:10;14.90;99.90
40808;DHT22;26523;52.504;13.498;2022-10-31T08:48:35;15.00;99.90
40808;DHT22;26523;52.504;13.498;2022-10-31T08:51:01;15.00;99.90
40808;DHT22;26523;52.504;13.498;2022-10-31T08:53:27;15.00;99.90
40808;DHT22;26523;52.504;13.498;2022-10-31T08:55:55;15.10;99.90
40808;DHT22;26523;52.504;13.498;2022-10-31T08:58:22;15.10;99.90
40808;DHT22;26523;52.504;13.498;2022-10-31T09:00:50;15.00;99.90
40808;DHT22;26523;52.504;13.498;2022-10-31T09:03:21;15.00;99.90
40808;DHT22;26523;52.504;13.498;2022-10-31T09:05:47;14.90;99.90
40808;DHT22;26523;52.504;13.498;2022-10-31T09:08:14;14.90;99.90
40808;DHT22;26523;52.504;13.498;2022-10-31T09:10:40;14.80;99.90
40808;DHT22;26523;52.504;13.498;2022-10-31T09:13:09;14.90;99.90
40808;DHT22;26523;52.504;13.498;2022-10-31T09:15:38;14.90;99.90
40808;DHT22;26523;52.504;13.498;2022-10-31T09:18:05;14.90;99.90
40808;DHT22;26523;52.504;13.498;2022-10-31T09:20:32;14.90;99.90
40808;DHT22;26523;52.504;13.498;2022-10-31T09:22:58;15.00;99.90
40808;DHT22;26523;52.504;13.498;2022-10-31T09:25:25;15.00;99.90
40808;DHT22;26523;52.504;13.498;2022-10-31T09:27:51;15.10;99.90
40808;DHT22;26523;52.504;13.498;2022-10-31T09:30:17;15.10;99.90
40808;DHT22;26523;52.504;13.498;2022-10-31T09:32:42;15.10;99.90
40808;DHT22;26523;52.504;13.498;2022-10-31T09:35:08;15.20;99.90
40808;DHT22;26523;52.504;13.498;2022-10-31T09:37:34;15.30;99.90
40808;DHT22;26523;52.504;13.498;2022-10-31T09:40:00;15.30;99.90
40808;DHT22;26523;52.504;13.498;2022-10-31T09:42:55;15.50;99.90
40808;DHT22;26523;52.504;13.498;2022-10-31T09:48:24;15.70;99.90
40808;DHT22;26523;52.504;13.498;2022-10-31T09:50:54;15.80;99.90
40808;DHT22;26523;52.504;13.498;2022-10-31T09:53:29;15.80;99.90
40808;DHT22;26523;52.504;13.498;2022-10-31T09:55:58;15.90;99.90
40808;DHT22;26523;52.504;13.498;2022-10-31T09:58:27;16.00;99.90
40808;DHT22;26523;52.504;13.498;2022-10-31T10:01:03;16.10;99.90
40808;DHT22;26523;52.504;13.498;2022-10-31T10:03:39;16.20;99.90
40808;DHT22;26523;52.504;13.498;2022-10-31T10:06:10;16.20;99.90
40808;DHT22;26523;52.504;13.498;2022-10-31T10:08:37;16.10;99.90
40808;DHT22;26523;52.504;13.498;2022-10-31T10:13:57;16.00;99.90
40808;DHT22;26523;52.504;13.498;2022-10-31T10:16:35;15.90;99.90
40808;DHT22;26523;52.504;13.498;2022-10-31T10:27:34;15.90;99.90
40808;DHT22;26523;52.504;13.498;2022-10-31T10:30:32;15.80;99.90
40808;DHT22;26523;52.504;13.498;2022-10-31T10:33:03;15.80;99.90
40808;DHT22;26523;52.504;13.498;2022-10-31T10:38:15;15.60;99.90
40808;DHT22;26523;52.504;13.498;2022-10-31T10:40:42;15.60;99.90
40808;DHT22;26523;52.504;13.498;2022-10-31T10:51:10;15.50;99.90
40808;DHT22;26523;52.504;13.498;2022-10-31T10:59:15;15.70;99.90
40808;DHT22;26523;52.504;13.498;2022-10-31T11:01:41;15.80;99.90
40808;DHT22;26523;52.504;13.498;2022-10-31T11:04:32;15.80;99.90
40808;DHT22;26523;52.504;13.498;2022-10-31T11:07:07;16.00;99.90
40808;DHT22;26523;52.504;13.498;2022-10-31T11:09:34;16.10;99.90
40808;DHT22;26523;52.504;13.498;2022-10-31T11:12:08;16.10;99.90
40808;DHT22;26523;52.504;13.498;2022-10-31T11:17:40;16.20;99.90
40808;DHT22;26523;52.504;13.498;2022-10-31T11:20:20;16.20;99.90
40808;DHT22;26523;52.504;13.498;2022-10-31T11:22:49;16.30;99.90
40808;DHT22;26523;52.504;13.498;2022-10-31T11:25:25;16.20;99.90
40808;DHT22;26523;52.504;13.498;2022-10-31T11:28:05;16.20;99.90
40808;DHT22;26523;52.504;13.498;2022-10-31T11:30:41;16.10;99.90
40808;DHT22;26523;52.504;13.498;2022-10-31T11:35:47;16.10;99.90
40808;DHT22;26523;52.504;13.498;2022-10-31T11:38:21;16.10;99.90
40808;DHT22;26523;52.504;13.498;2022-10-31T11:40:53;16.10;99.90
40808;DHT22;26523;52.504;13.498;2022-10-31T11:43:19;16.10;99.90
40808;DHT22;26523;52.504;13.498;2022-10-31T11:45:46;16.10;99.90
40808;DHT22;26523;52.504;13.498;2022-10-31T11:48:21;16.10;99.90
40808;DHT22;26523;52.504;13.498;2022-10-31T11:50:52;16.10;99.90
40808;DHT22;26523;52.504;13.498;2022-10-31T11:53:27;16.20;99.90
40808;DHT22;26523;52.504;13.498;2022-10-31T11:56:13;16.30;99.90
40808;DHT22;26523;52.504;13.498;2022-10-31T11:58:39;16.30;99.90
40808;DHT22;26523;52.504;13.498;2022-10-31T12:01:05;16.30;99.90
40808;DHT22;26523;52.504;13.498;2022-10-31T12:03:50;16.40;99.90
40808;DHT22;26523;52.504;13.498;2022-10-31T12:06:22;16.40;99.90
40808;DHT22;26523;52.504;13.498;2022-10-31T12:08:49;16.50;99.90
40808;DHT22;26523;52.504;13.498;2022-10-31T12:14:16;16.50;99.90
40808;DHT22;26523;52.504;13.498;2022-10-31T12:17:16;16.50;99.90
40808;DHT22;26523;52.504;13.498;2022-10-31T12:30:23;16.70;99.90
40808;DHT22;26523;52.504;13.498;2022-10-31T12:33:07;16.70;99.90
40808;DHT22;26523;52.504;13.498;2022-10-31T12:41:27;16.90;99.90
40808;DHT22;26523;52.504;13.498;2022-10-31T12:44:12;16.90;99.90
40808;DHT22;26523;52.504;13.498;2022-10-31T12:54:20;17.00;99.90
40808;DHT22;26523;52.504;13.498;2022-10-31T12:59:52;17.00;99.90
40808;DHT22;26523;52.504;13.498;2022-10-31T13:05:16;17.10;99.90
40808;DHT22;26523;52.504;13.498;2022-10-31T13:10:21;17.20;99.90
40808;DHT22;26523;52.504;13.498;2022-10-31T13:12:53;17.30;99.90
40808;DHT22;26523;52.504;13.498;2022-10-31T13:15:28;17.30;99.90
40808;DHT22;26523;52.504;13.498;2022-10-31T13:17:57;17.40;99.90
40808;DHT22;26523;52.504;13.498;2022-10-31T13:20:30;17.40;99.90
40808;DHT22;26523;52.504;13.498;2022-10-31T13:23:24;17.40;99.90
40808;DHT22;26523;52.504;13.498;2022-10-31T13:25:54;17.40;99.90
40808;DHT22;26523;52.504;13.498;2022-10-31T13:28:54;17.40;99.90
40808;DHT22;26523;52.504;13.498;2022-10-31T13:31:21;17.40;99.90
40808;DHT22;26523;52.504;13.498;2022-10-31T13:33:57;17.40;99.90
40808;DHT22;26523;52.504;13.498;2022-10-31T13:44:27;17.30;99.90
40808;DHT22;26523;52.504;13.498;2022-10-31T13:46:55;17.30;99.90
40808;DHT22;26523;52.504;13.498;2022-10-31T13:51:49;17.30;99.90
40808;DHT22;26523;52.504;13.498;2022-10-31T13:54:32;17.20;99.90
40808;DHT22;26523;52.504;13.498;2022-10-31T13:56:59;17.20;99.90
40808;DHT22;26523;52.504;13.498;2022-10-31T13:59:32;17.10;99.90
40808;DHT22;26523;52.504;13.498;2022-10-31T14:02:10;17.20;99.90
40808;DHT22;26523;52.504;13.498;2022-10-31T14:04:46;17.00;99.90
40808;DHT22;26523;52.504;13.498;2022-10-31T14:07:15;17.00;99.90
40808;DHT22;26523;52.504;13.498;2022-10-31T14:10:01;17.00;99.90
40808;DHT22;26523;52.504;13.498;2022-10-31T14:12:31;17.00;99.90
40808;DHT22;26523;52.504;13.498;2022-10-31T14:15:21;16.90;99.90
40808;DHT22;26523;52.504;13.498;2022-10-31T14:20:25;16.80;99.90
40808;DHT22;26523;52.504;13.498;2022-10-31T14:22:50;16.70;99.90
40808;DHT22;26523;52.504;13.498;2022-10-31T14:25:34;16.70;99.90
40808;DHT22;26523;52.504;13.498;2022-10-31T14:28:05;16.60;99.90
40808;DHT22;26523;52.504;13.498;2022-10-31T14:30:51;16.60;99.90
40808;DHT22;26523;52.504;13.498;2022-10-31T14:33:19;16.50;99.90
40808;DHT22;26523;52.504;13.498;2022-10-31T14:36:01;16.50;99.90
40808;DHT22;26523;52.504;13.498;2022-10-31T14:38:51;16.50;99.90
40808;DHT22;26523;52.504;13.498;2022-10-31T14:41:34;16.40;99.90
40808;DHT22;26523;52.504;13.498;2022-10-31T14:46:54;16.30;99.90
40808;DHT22;26523;52.504;13.498;2022-10-31T14:49:34;16.30;99.90
40808;DHT22;26523;52.504;13.498;2022-10-31T14:52:06;16.20;99.90
40808;DHT22;26523;52.504;13.498;2022-10-31T14:54:35;16.20;99.90
40808;DHT22;26523;52.504;13.498;2022-10-31T14:59:51;16.10;99.90
40808;DHT22;26523;52.504;13.498;2022-10-31T15:02:30;16.00;99.90
40808;DHT22;26523;52.504;13.498;2022-10-31T15:05:00;16.00;99.90
40808;DHT22;26523;52.504;13.498;2022-10-31T15:07:27;15.90;99.90
40808;DHT22;26523;52.504;13.498;2022-10-31T15:10:00;15.90;99.90
40808;DHT22;26523;52.504;13.498;2022-10-31T15:12:28;15.90;99.90
40808;DHT22;26523;52.504;13.498;2022-10-31T15:14:54;15.80;99.90
40808;DHT22;26523;52.504;13.498;2022-10-31T15:17:22;15.80;99.90
40808;DHT22;26523;52.504;13.498;2022-10-31T15:19:48;15.70;99.90
40808;DHT22;26523;52.504;13.498;2022-10-31T15:22:16;15.70;99.90
40808;DHT22;26523;52.504;13.498;2022-10-31T15:24:42;15.60;99.90
40808;DHT22;26523;52.504;13.498;2022-10-31T15:27:14;15.60;99.90
40808;DHT22;26523;52.504;13.498;2022-10-31T15:29:51;15.50;99.90
40808;DHT22;26523;52.504;13.498;2022-10-31T15:32:20;15.50;99.90
40808;DHT22;26523;52.504;13.498;2022-10-31T15:34:46;15.40;99.90
40808;DHT22;26523;52.504;13.498;2022-10-31T15:37:16;15.30;99.90
40808;DHT22;26523;52.504;13.498;2022-10-31T15:39:43;15.30;99.90
40808;DHT22;26523;52.504;13.498;2022-10-31T15:42:19;15.20;99.90
40808;DHT22;26523;52.504;13.498;2022-10-31T15:44:49;15.10;99.90
40808;DHT22;26523;52.504;13.498;2022-10-31T15:47:18;15.10;99.90
40808;DHT22;26523;52.504;13.498;2022-10-31T15:49:55;15.00;99.90
40808;DHT22;26523;52.504;13.498;2022-10-31T15:52:37;15.00;99.90
40808;DHT22;26523;52.504;13.498;2022-10-31T15:55:15;14.90;99.90
40808;DHT22;26523;52.504;13.498;2022-10-31T15:57:50;14.80;99.90
40808;DHT22;26523;52.504;13.498;2022-10-31T16:00:35;14.80;99.90
40808;DHT22;26523;52.504;13.498;2022-10-31T16:03:08;14.80;99.90
40808;DHT22;26523;52.504;13.498;2022-10-31T16:05:47;14.70;99.90
40808;DHT22;26523;52.504;13.498;2022-10-31T16:08:44;14.70;99.90
40808;DHT22;26523;52.504;13.498;2022-10-31T16:13:52;14.70;99.90
40808;DHT22;26523;52.504;13.498;2022-10-31T16:16:18;14.70;99.90
40808;DHT22;26523;52.504;13.498;2022-10-31T16:18:46;14.60;99.90
40808;DHT22;26523;52.504;13.498;2022-10-31T16:21:12;14.50;99.90
40808;DHT22;26523;52.504;13.498;2022-10-31T16:23:43;14.40;99.90
40808;DHT22;26523;52.504;13.498;2022-10-31T16:26:09;14.40;99.90
40808;DHT22;26523;52.504;13.498;2022-10-31T16:28:36;14.40;99.90
40808;DHT22;26523;52.504;13.498;2022-10-31T16:31:13;14.30;99.90
40808;DHT22;26523;52.504;13.498;2022-10-31T16:33:38;14.30;99.90
40808;DHT22;26523;52.504;13.498;2022-10-31T16:38:59;14.20;99.90
40808;DHT22;26523;52.504;13.498;2022-10-31T16:41:25;14.20;99.90
40808;DHT22;26523;52.504;13.498;2022-10-31T16:43:52;14.20;99.90
40808;DHT22;26523;52.504;13.498;2022-10-31T16:46:24;14.10;99.90
40808;DHT22;26523;52.504;13.498;2022-10-31T16:48:51;14.10;99.90
40808;DHT22;26523;52.504;13.498;2022-10-31T16:51:17;14.10;99.90
40808;DHT22;26523;52.504;13.498;2022-10-31T16:53:43;14.00;99.90
40808;DHT22;26523;52.504;13.498;2022-10-31T16:56:15;14.00;99.90
40808;DHT22;26523;52.504;13.498;2022-10-31T16:58:41;13.90;99.90
40808;DHT22;26523;52.504;13.498;2022-10-31T17:01:07;13.80;99.90
40808;DHT22;26523;52.504;13.498;2022-10-31T17:03:33;13.80;99.90
40808;DHT22;26523;52.504;13.498;2022-10-31T17:05:58;13.70;99.90
40808;DHT22;26523;52.504;13.498;2022-10-31T17:08:24;13.70;99.90
40808;DHT22;26523;52.504;13.498;2022-10-31T17:10:52;13.70;99.90
40808;DHT22;26523;52.504;13.498;2022-10-31T17:13:21;13.60;99.90
40808;DHT22;26523;52.504;13.498;2022-10-31T17:15:50;13.60;99.90
40808;DHT22;26523;52.504;13.498;2022-10-31T17:18:17;13.60;99.90
40808;DHT22;26523;52.504;13.498;2022-10-31T17:20:44;13.50;99.90
40808;DHT22;26523;52.504;13.498;2022-10-31T17:23:10;13.50;99.90
40808;DHT22;26523;52.504;13.498;2022-10-31T17:25:36;13.50;99.90
40808;DHT22;26523;52.504;13.498;2022-10-31T17:28:03;13.40;99.90
40808;DHT22;26523;52.504;13.498;2022-10-31T17:30:30;13.30;99.90
40808;DHT22;26523;52.504;13.498;2022-10-31T17:32:56;13.30;99.90
40808;DHT22;26523;52.504;13.498;2022-10-31T17:35:22;13.30;99.90